METAR Data
IDs: Format: Raw Decoded Include TAF

Data at: 0936 UTC 18 Jan 2022

ESNN 180920Z 06002KT CAVOK M05/M06 Q1016